Accueil
METAR-TAF:

METAR-TAF

Aéroports :

Aéroport international de Honiara

Honiara, Guadalcanal, Iles Salomon

latitude: 09-25S, longitude: 160-03E, altitude: 8 m

Observation

Le bulletin a été fait il y a 1 heure et 2 minutes, à 05:00 UTC
Vent 12 kt de nord-ouest
Température 32°C
Humidité 71%
Pression 1004 hPa
Quelques nuages à une hauteur de 2100 ft
Quelques nuages à une hauteur de 2100 ft, Cumulonimbus.

METAR: AGGH 270500Z 32012KT 999 FEW021 FEW021CB 32/26 Q1004

Heure: 17:02 (06:02 UTC)

Prévision

Le bulletin a été fait il y a 29 minutes, à 05:33 UTC
Prévision valable du 27 à 06 UTC au 28 à 06 UTC
Vent 8 kt de sud/sud-est
Visibilité: 1006 m
Nuages épars à une hauteur de 1800 ft

TAF: AGGH 270533Z 2706/2806 16008KT 9999 SCT018 T 32 30 26 24 Q 1004 1006 1007 1006

Observations et prévisions météorologiques de plus de 4000 aéroports (messages METAR et TAF).

Les stations disponibles sont représentées par des disques jaunes et rouges sur la carte.

Passer la souris dessus pour voir le nom de la station.

Cliquer dessus pour voir les observations et prévisions météorologiques.

Pour changer de carte: cliquez sur les boutons verts avec une croix noire pour zoomer, sur le bouton vert avec un tiret pour effectuer un zoom arrière, ou sur les flèches vertes pour les cartes adjacentes.


METAR-TAF: